createdAt,value
2023-05-17T00:01:47.136Z,8.85
2023-05-17T00:11:46.367Z,8.85
2023-05-17T00:21:46.548Z,8.85
2023-05-17T00:31:46.753Z,8.85
2023-05-17T00:41:47.068Z,8.85
2023-05-17T00:51:47.023Z,7.85
2023-05-17T01:01:47.215Z,7.70
2023-05-17T01:11:47.455Z,7.70
2023-05-17T01:21:47.735Z,7.70
2023-05-17T01:31:47.978Z,7.70
2023-05-17T01:41:48.170Z,7.70
2023-05-17T01:51:48.422Z,7.70
2023-05-17T02:01:48.710Z,7.55
2023-05-17T02:11:48.769Z,7.55
2023-05-17T02:21:49.033Z,7.70
2023-05-17T02:31:49.213Z,7.70
2023-05-17T02:41:49.402Z,7.85
2023-05-17T02:51:49.602Z,7.85
2023-05-17T03:01:49.809Z,7.70
2023-05-17T03:11:50.058Z,7.55
2023-05-17T03:21:50.268Z,7.55
2023-05-17T03:31:50.480Z,7.55
2023-05-17T03:41:50.655Z,7.55
2023-05-17T03:51:50.797Z,7.55
2023-05-17T04:01:50.967Z,7.70
2023-05-17T04:11:51.144Z,7.55
2023-05-17T04:21:51.303Z,7.40
2023-05-17T04:31:51.432Z,7.40
2023-05-17T04:41:51.591Z,7.40
2023-05-17T04:51:51.778Z,7.40
2023-05-17T05:01:51.947Z,7.55
2023-05-17T05:11:52.105Z,7.55
2023-05-17T05:21:52.269Z,7.55
2023-05-17T05:31:52.432Z,7.55
2023-05-17T05:41:52.621Z,7.55
2023-05-17T05:51:52.751Z,7.40
2023-05-17T06:01:52.929Z,7.25
2023-05-17T06:11:53.086Z,8.09
2023-05-17T06:21:53.406Z,7.93
2023-05-17T06:31:53.358Z,7.61
2023-05-17T06:41:53.529Z,7.28
2023-05-17T06:51:53.673Z,6.95
2023-05-17T07:01:53.847Z,7.76
2023-05-17T07:11:54.034Z,7.07
2023-05-17T07:21:54.206Z,6.71
2023-05-17T07:31:54.365Z,7.07
2023-05-17T07:41:54.552Z,6.71
2023-05-17T07:51:54.730Z,6.34
2023-05-17T08:01:54.900Z,7.50
2023-05-17T08:11:55.072Z,7.31
2023-05-17T08:21:55.220Z,6.74
2023-05-17T08:31:55.394Z,7.31
2023-05-17T08:41:55.540Z,6.93
2023-05-17T08:51:55.682Z,6.54
2023-05-17T09:01:55.861Z,6.54
2023-05-17T09:11:56.039Z,7.31
2023-05-17T09:21:56.202Z,6.14
2023-05-17T09:31:56.332Z,6.48
2023-05-17T09:41:56.495Z,6.06
2023-05-17T09:51:56.649Z,6.79
2023-05-17T10:01:56.809Z,7.44
2023-05-17T10:11:56.949Z,6.34
2023-05-17T10:21:58.651Z,6.59
2023-05-17T10:31:58.347Z,5.65
2023-05-17T10:42:12.947Z,6.59
2023-05-17T10:51:58.729Z,6.59
2023-05-17T11:01:57.910Z,6.59
2023-05-17T11:11:58.067Z,6.35
2023-05-17T11:21:58.231Z,6.59
2023-05-17T11:31:58.397Z,7.05
2023-05-17T11:41:58.581Z,5.61
2023-05-17T11:51:58.735Z,5.61
2023-05-17T12:01:58.907Z,6.11
2023-05-17T12:11:59.077Z,5.35
2023-05-17T12:21:59.263Z,5.86
2023-05-17T12:31:59.409Z,6.11
2023-05-17T12:41:59.632Z,6.34
2023-05-17T12:51:59.806Z,6.12
2023-05-17T13:01:59.980Z,6.59
2023-05-17T13:12:00.154Z,6.11
2023-05-17T13:22:00.305Z,6.59
2023-05-17T13:32:00.473Z,6.11
2023-05-17T13:42:00.649Z,6.11
2023-05-17T13:52:00.917Z,6.11
2023-05-17T14:02:00.869Z,6.11
2023-05-17T14:12:01.444Z,6.11
2023-05-17T14:22:01.179Z,6.11
2023-05-17T14:32:01.354Z,5.86
2023-05-17T14:42:01.513Z,6.54
2023-05-17T14:52:01.679Z,6.29
2023-05-17T15:02:01.921Z,6.80
2023-05-17T15:12:02.112Z,6.42
2023-05-17T15:22:02.095Z,6.03
2023-05-17T15:32:02.258Z,6.29
2023-05-17T15:42:02.441Z,5.22
2023-05-17T15:52:02.662Z,6.03
2023-05-17T16:02:02.886Z,7.29
2023-05-17T16:12:03.148Z,6.03
2023-05-17T16:22:03.404Z,6.59
2023-05-17T16:32:03.639Z,5.86
2023-05-17T16:42:03.706Z,6.35
2023-05-17T16:52:04.059Z,6.59
2023-05-17T17:02:04.339Z,6.12
2023-05-17T17:12:16.285Z,6.34
2023-05-17T17:22:05.615Z,6.34
2023-05-17T17:32:04.936Z,6.34
2023-05-17T17:42:04.918Z,5.88
2023-05-17T17:52:05.030Z,7.01
2023-05-17T18:02:05.173Z,6.06
2023-05-17T18:12:05.308Z,6.48
2023-05-17T18:22:05.438Z,6.27
2023-05-17T18:32:05.623Z,6.90
2023-05-17T18:42:05.712Z,6.48
2023-05-17T18:52:05.850Z,6.90
2023-05-17T19:02:05.951Z,5.73
2023-05-17T19:12:06.099Z,5.94
2023-05-17T19:22:06.181Z,5.53
2023-05-17T19:32:06.514Z,5.53
2023-05-17T19:42:06.587Z,5.73
2023-05-17T19:52:06.678Z,5.94
2023-05-17T20:02:06.914Z,5.73
2023-05-17T20:12:06.992Z,5.73
2023-05-17T20:22:07.138Z,5.53
2023-05-17T20:32:07.423Z,5.73
2023-05-17T20:42:07.357Z,5.73
2023-05-17T20:52:07.650Z,5.32
2023-05-17T21:02:07.354Z,6.54
2023-05-17T21:12:07.650Z,6.54
2023-05-17T21:22:07.857Z,6.74
2023-05-17T21:32:08.088Z,5.96
2023-05-17T21:42:08.332Z,6.15
2023-05-17T21:52:08.515Z,5.96
2023-05-17T22:02:08.780Z,5.96
2023-05-17T22:12:08.855Z,5.96
2023-05-17T22:22:09.037Z,5.96
2023-05-17T22:32:09.293Z,5.77
2023-05-17T22:42:09.525Z,6.15
2023-05-17T22:52:09.741Z,6.15
2023-05-17T23:02:09.954Z,6.15
2023-05-17T23:12:10.140Z,6.15
2023-05-17T23:22:10.358Z,6.34
2023-05-17T23:32:10.549Z,5.55
2023-05-17T23:42:10.752Z,5.73
2023-05-17T23:52:11.021Z,6.09
